Flight Track Log - Related Links

Times and Time Zones

All times are in EDT time to prevent confusion due to time zone crossing. See the ACA935 flight status page for this flight to view local times or setup timezone preferences in your user account.

Time Position Orientation Groundspeed Altitude Reporting Facility
EDT Latitude Longitude Course Direction KTS MPH feet Rate Location/Type
Thu 07:44:38 AM 26.0750 -80.1367 North 199 229 1,000  Level Miami Center
Thu 07:45:43 AM 26.0844 -80.0814 79° East 165 190 2,500 1,776 Climbing Miami Center
Thu 07:46:43 AM 26.0964 -80.0100 79° East 196 226 4,700 1,250 Climbing Miami Center
Thu 07:47:43 AM 26.1672 -80.0211 352° North 171 197 5,000 750 Climbing Miami Center
Thu 07:48:00 AM 26.5614 -80.1408 North  Level Estimated
Thu 07:48:43 AM 26.2203 -80.0781 316° Northwest 196 226 6,200  Level Miami Center
Thu 07:49:00 AM 26.6837 -80.1378 North  Level Estimated
Thu 07:49:43 AM 26.2733 -80.1353 316° Northwest 234 269 9,400  Level Miami Center
Thu 07:50:43 AM 26.3347 -80.1972 318° Northwest 271 312 11,300 2,100 Climbing Miami Center
Thu 07:51:43 AM 26.4169 -80.2575 327° Northwest 316 364 13,600 2,450 Climbing Miami Center
Thu 07:52:43 AM 26.5119 -80.2950 341° North 338 389 16,200 2,350 Climbing Miami Center
Thu 07:53:43 AM 26.6133 -80.3350 341° North 360 414 18,300 2,000 Climbing Miami Center
Thu 07:54:43 AM 26.7147 -80.3753 340° North 373 429 20,200 1,850 Climbing Miami Center
Thu 07:55:43 AM 26.8139 -80.4178 339° North 379 436 22,000 1,850 Climbing Miami Center
Thu 07:56:43 AM 26.9236 -80.4561 343° North 392 451 23,900 1,700 Climbing Miami Center
Thu 07:57:43 AM 27.0311 -80.4992 340° North 400 460 25,400 1,400 Climbing Miami Center
Thu 07:58:43 AM 27.1431 -80.5400 342° North 411 473 26,700 2,200 Climbing Miami Center
Thu 07:59:43 AM 27.2503 -80.5831 340° North 411 473 29,800 2,250 Climbing Miami Center
Thu 08:00:43 AM 27.3517 -80.6214 341° North 401 461 31,200 1,450 Climbing Miami Center
Thu 08:01:43 AM 27.4531 -80.6622 340° North 390 449 32,700 1,650 Climbing Miami Center
Thu 08:02:43 AM 27.5500 -80.6981 342° North 378 435 34,500 1,100 Climbing Miami Center
Thu 08:03:43 AM 27.6472 -80.7367 341° North 368 423 34,900 850 Climbing Miami Center
Thu 08:04:43 AM 27.7422 -80.7725 342° North 368 423 36,200 1,050 Climbing Miami Center
Thu 08:05:43 AM 27.8475 -80.8139 341° North 368 423 37,000 350 Climbing Miami Center
Thu 08:06:43 AM 27.9447 -80.8525 341° North 363 418 36,900 -50 Descending Miami Center
Thu 08:07:43 AM 28.0436 -80.8911 341° North 368 423 36,900 38 Level Miami Center
Thu 08:09:22 AM 28.1958 -80.9472 342° North 378 435 37,000  Climbing Jacksonville Center
Thu 08:10:22 AM 28.2986 -80.9806 344° North 378 435 36,900  Descending Jacksonville Center
Thu 08:11:22 AM 28.3969 -81.0142 343° North 383 441 37,000  Climbing Jacksonville Center
Thu 08:12:22 AM 28.5000 -81.0547 341° North 388 447 36,900 -50 Descending Jacksonville Center
Thu 08:13:22 AM 28.5983 -81.0861 344° North 383 441 36,900 50 Level Jacksonville Center
Thu 08:14:22 AM 28.6992 -81.1222 343° North 383 441 37,000 50 Climbing Jacksonville Center
Thu 08:15:22 AM 28.8039 -81.1464 349° North 378 435 37,000 -50 Level Jacksonville Center
Thu 08:16:22 AM 28.9106 -81.1706 349° North 378 435 36,900  Descending Jacksonville Center
Thu 08:17:22 AM 29.0172 -81.1947 349° North 378 435 37,000  Climbing Jacksonville Center
Thu 08:18:22 AM 29.1242 -81.2192 349° North 378 435 36,900 -50 Descending Jacksonville Center
Thu 08:19:22 AM 29.2289 -81.2436 348° North 378 435 36,900  Level Jacksonville Center
Thu 08:20:22 AM 29.3333 -81.2681 348° North 378 435 36,900  Level Jacksonville Center
Thu 08:21:22 AM 29.4381 -81.2925 349° North 378 435 36,900 50 Level Jacksonville Center
Thu 08:22:22 AM 29.5533 -81.3242 347° North 378 435 37,000  Climbing Jacksonville Center
Thu 08:23:22 AM 29.6600 -81.3511 348° North 378 435 36,900  Descending Jacksonville Center
Thu 08:24:22 AM 29.7689 -81.3756 349° North 383 441 37,000 50 Climbing Jacksonville Center
Thu 08:25:22 AM 29.8800 -81.4025 348° North 390 449 37,000  Level Jacksonville Center
Thu 08:26:22 AM 29.9867 -81.4297 348° North 390 449 37,000  Level Jacksonville Center
Thu 08:27:22 AM 30.0914 -81.4544 348° North 390 449 37,000  Level Jacksonville Center
Thu 08:28:22 AM 30.2003 -81.4819 348° North 390 449 37,000 -50 Level Jacksonville Center
Thu 08:29:22 AM 30.3092 -81.5067 349° North 390 449 36,900  Descending Jacksonville Center
Thu 08:30:22 AM 30.4239 -81.5075 360° North 395 455 37,000 50 Climbing Jacksonville Center
Thu 08:31:22 AM 30.5408 -81.4986 North 401 461 37,000 -50 Level Jacksonville Center
Thu 08:32:22 AM 30.6597 -81.4869 North 412 474 36,900 -50 Descending Jacksonville Center
Thu 08:33:22 AM 30.7786 -81.4781 North 423 487 36,900 50 Level Jacksonville Center
Thu 08:34:22 AM 30.8994 -81.4689 North 423 487 37,000 50 Climbing Jacksonville Center
Thu 08:35:22 AM 31.0206 -81.4575 North 423 487 37,000  Level Jacksonville Center
Thu 08:36:22 AM 31.1414 -81.4483 North 423 487 37,000  Level Jacksonville Center
Thu 08:37:22 AM 31.2644 -81.4367 North 428 493 37,000  Level Jacksonville Center
Thu 08:38:22 AM 31.3750 -81.4058 13° North 450 518 37,000  Level Jacksonville Center
Thu 08:39:22 AM 31.5103 -81.3792 10° North 450 518 37,000  Level Jacksonville Center
Thu 08:40:22 AM 31.6353 -81.3650 North 450 518 37,000  Level Jacksonville Center
Thu 08:41:22 AM 31.7439 -81.3536 North 437 503 37,000  Level Jacksonville Center
Thu 08:42:22 AM 31.8772 -81.3392 North 442 509 37,000 -50 Level Jacksonville Center
Thu 08:43:22 AM 32.0022 -81.3247 North 442 509 36,900 -50 Descending Jacksonville Center
Thu 08:44:22 AM 32.1275 -81.3103 North 447 514 36,900 50 Level Jacksonville Center
Thu 08:45:22 AM 32.2506 -81.2983 North 447 514 37,000 50 Climbing Jacksonville Center
Thu 08:46:22 AM 32.3775 -81.2814 North 441 507 37,000  Level Jacksonville Center
Thu 08:47:22 AM 32.4903 -81.2719 North 441 507 37,000  Level Jacksonville Center
Thu 08:48:22 AM 32.6258 -81.2572 North 441 507 37,000  Level Jacksonville Center
Thu 08:49:22 AM 32.7467 -81.2403 North 441 507 37,000 -50 Level Jacksonville Center
Thu 08:50:22 AM 32.8694 -81.2256 North 441 507 36,900 -50 Descending Jacksonville Center
Thu 08:51:22 AM 32.9883 -81.2133 North 441 507 36,900  Level Jacksonville Center
Thu 08:52:22 AM 33.1092 -81.2014 North 441 507 36,900  Level Jacksonville Center
Thu 08:53:22 AM 33.2300 -81.1867 North 441 507 36,900 50 Level Jacksonville Center
Thu 08:54:22 AM 33.3531 -81.1694 North 441 507 37,000 50 Climbing Jacksonville Center
Thu 08:55:22 AM 33.4758 -81.1569 North 441 507 37,000  Level Jacksonville Center
Thu 08:56:22 AM 33.5989 -81.1422 North 441 507 37,000 -50 Level Jacksonville Center
Thu 08:57:22 AM 33.7219 -81.1272 North 441 507 36,900  Descending Jacksonville Center
Thu 08:58:22 AM 33.8425 -81.1097 North 441 507 37,000 50 Climbing Jacksonville Center
Thu 08:59:22 AM 33.9675 -81.0947 North 441 507 37,000  Level Jacksonville Center
Thu 09:01:19 AM 34.1925 -81.0678 North 455 524 37,000  Level Atlanta Center
Thu 09:02:19 AM 34.3203 -81.0886 352° North 433 498 37,000  Level Atlanta Center
Thu 09:03:19 AM 34.4317 -81.1275 344° North 420 483 37,000  Level Atlanta Center
Thu 09:04:19 AM 34.5389 -81.1617 345° North 410 472 37,000  Level Atlanta Center
Thu 09:05:19 AM 34.6525 -81.1931 347° North 410 472 37,000  Level Atlanta Center
Thu 09:06:19 AM 34.7619 -81.2322 344° North 410 472 37,000  Level Atlanta Center
Thu 09:07:19 AM 34.8733 -81.2664 346° North 410 472 37,000  Level Atlanta Center
Thu 09:08:19 AM 34.9939 -81.2525 North 410 472 37,000  Level Atlanta Center
Thu 09:09:20 AM 35.1164 -81.2203 12° North 422 486 37,000  Level Atlanta Center
Thu 09:10:19 AM 35.2386 -81.1908 11° North 438 504 37,000  Level Atlanta Center
Thu 09:11:19 AM 35.3569 -81.1586 13° North 443 510 37,000  Level Atlanta Center
Thu 09:12:19 AM 35.4792 -81.1264 12° North 443 510 37,000  Level Atlanta Center
Thu 09:13:19 AM 35.5933 -81.0967 12° North 459 528 37,000  Level Atlanta Center
Thu 09:14:19 AM 35.7178 -81.0667 11° North 459 528 37,000  Level Atlanta Center
Thu 09:15:19 AM 35.8422 -81.0339 12° North 459 528 37,000  Level Atlanta Center
Thu 09:16:19 AM 35.9644 -81.0039 11° North 454 522 37,000  Level Atlanta Center
Thu 09:17:19 AM 36.0867 -80.9736 11° North 449 517 37,000  Level Atlanta Center
Thu 09:18:19 AM 36.2089 -80.9406 12° North 449 517 37,000  Level Atlanta Center
Thu 09:19:19 AM 36.3311 -80.9075 12° North 449 517 37,000 -50 Level Atlanta Center
Thu 09:20:19 AM 36.4514 -80.8769 12° North 449 517 36,900 -500 Descending Atlanta Center
Thu 09:21:19 AM 36.5736 -80.8464 11° North 449 517 36,000 -644 Descending Atlanta Center
Thu 09:23:16 AM 36.8217 -80.7839 11° North 449 517 35,000 -339 Descending Washington Center
Thu 09:24:16 AM 36.9400 -80.7503 13° North 444 511 35,000  Level Washington Center
Thu 09:25:17 AM 37.0622 -80.7219 10° North 444 511 35,000  Level Washington Center
Thu 09:26:15 AM 37.1828 -80.6806 15° North 439 505 35,000  Level Washington Center
Thu 09:27:15 AM 37.2928 -80.6461 14° North 439 505 35,000  Level Washington Center
Thu 09:28:15 AM 37.4156 -80.6047 15° North 439 505 35,000  Level Washington Center
Thu 09:29:14 AM 37.5361 -80.5656 14° North 439 505 35,000  Level Washington Center
Thu 09:30:15 AM 37.6589 -80.5236 15° North 439 505 35,000  Level Washington Center
Thu 09:31:15 AM 37.7794 -80.4817 15° North 444 511 35,000  Level Washington Center
Thu 09:32:16 AM 37.9019 -80.4422 14° North 444 511 35,000  Level Washington Center
Thu 09:33:17 AM 38.0353 -80.3981 15° North 444 511 35,000  Level Washington Center
Thu 09:34:14 AM 38.1539 -80.3556 16° North 444 511 35,000  Level Washington Center
Thu 09:35:16 AM 38.2742 -80.3156 15° North 444 511 35,000  Level Washington Center
Thu 09:36:17 AM 38.3947 -80.2731 15° North 444 511 35,000  Level Washington Center
Thu 09:37:15 AM 38.5131 -80.2328 15° North 444 511 35,000  Level Washington Center
Thu 09:38:16 AM 38.6231 -80.1969 14° North 444 511 35,000  Level Washington Center
Thu 09:40:05 AM 38.8308 -80.1172 17° North 446 513 35,000  Level Cleveland Center
Thu 09:41:07 AM 38.9753 -80.0911 North 441 507 35,000  Level Cleveland Center
Thu 09:42:08 AM 39.0939 -80.0950 359° North 434 499 35,000  Level Cleveland Center
Thu 09:43:10 AM 39.2142 -80.0797 North 433 498 35,000  Level Cleveland Center
Thu 09:44:12 AM 39.3344 -80.0458 12° North 434 499 35,000  Level Cleveland Center
Thu 09:45:14 AM 39.4542 -80.0169 11° North 436 502 35,000  Level Cleveland Center
Thu 09:46:16 AM 39.5742 -79.9900 10° North 436 502 35,000  Level Cleveland Center
Thu 09:47:18 AM 39.7186 -79.9556 10° North 438 504 35,000  Level Cleveland Center
Thu 09:48:20 AM 39.8392 -79.9275 10° North 438 504 35,000  Level Cleveland Center
Thu 09:49:22 AM 39.9583 -79.8983 11° North 438 504 35,000  Level Cleveland Center
Thu 09:50:24 AM 40.0775 -79.8700 10° North 438 504 35,000  Level Cleveland Center
Thu 09:51:26 AM 40.1956 -79.8422 10° North 436 502 35,000  Level Cleveland Center
Thu 09:52:28 AM 40.3375 -79.8069 11° North 437 503 35,000  Level Cleveland Center
Thu 09:53:30 AM 40.4561 -79.7797 10° North 437 503 35,000  Level Cleveland Center
Thu 09:54:31 AM 40.5750 -79.7511 10° North 438 504 35,000  Level Cleveland Center
Thu 09:55:33 AM 40.6928 -79.7247 10° North 437 503 35,000 -290 Level Cleveland Center
Thu 09:56:35 AM 40.8114 -79.6953 11° North 437 503 34,400 -484 Descending Cleveland Center
Thu 09:57:37 AM 40.9536 -79.6611 10° North 436 502 34,000 -194 Descending Cleveland Center
Thu 09:58:39 AM 41.0706 -79.6317 11° North 432 497 34,000  Level Cleveland Center
Thu 09:59:41 AM 41.1875 -79.6019 11° North 431 496 34,000  Level Cleveland Center
Thu 10:00:43 AM 41.3042 -79.5736 10° North 430 495 34,000  Level Cleveland Center
Thu 10:01:45 AM 41.4333 -79.5411 11° North 429 494 34,000  Level Cleveland Center
Thu 10:02:47 AM 41.5519 -79.5103 11° North 430 495 34,000 -677 Level Cleveland Center
Thu 10:03:49 AM 41.6719 -79.4808 10° North 436 502 32,600 -1,403 Descending Cleveland Center
Thu 10:04:51 AM 41.7933 -79.4514 10° North 440 506 31,100 -1,403 Descending Cleveland Center
Thu 10:05:53 AM 41.9106 -79.4511 360° North 418 481 29,700 -1,561 Descending Cleveland Center
Thu 10:06:54 AM 42.0461 -79.4550 359° North 412 474 27,900 -1,659 Descending Cleveland Center
Thu 10:07:56 AM 42.1567 -79.4594 358° North 399 459 26,300 -1,500 Descending Cleveland Center
Thu 10:08:58 AM 42.2622 -79.4161 17° North 404 465 24,800 -1,452 Descending Cleveland Center
Thu 10:10:00 AM 42.3675 -79.4003 North 385 443 23,300 -1,452 Descending Cleveland Center
Thu 10:11:02 AM 42.4783 -79.3786 North 384 442 21,800 -1,452 Descending Cleveland Center
Thu 10:12:04 AM 42.5808 -79.3606 North 373 429 20,300 -1,463 Descending Cleveland Center
Thu 10:13:05 AM 42.6806 -79.3406 North 365 420 18,800 -1,317 Descending Cleveland Center
Thu 10:14:07 AM 42.7803 -79.3203 North 364 419 17,600 -1,258 Descending Cleveland Center
Thu 10:15:09 AM 42.8961 -79.3172 North 341 392 16,200 -701 Descending Cleveland Center
Thu 10:16:24 AM 43.0000 -79.3167 360° North 340 391 16,000 -267 Descending Toronto Center
Thu 10:17:24 AM 43.1000 -79.3167 360° North 340 391 15,600 -950 Descending Toronto Center
Thu 10:18:24 AM 43.1833 -79.3333 352° North 330 380 14,100 -1,400 Descending Toronto Center
Thu 10:19:24 AM 43.2667 -79.3333 360° North 310 357 12,800 -1,100 Descending Toronto Center
Thu 10:20:24 AM 43.3500 -79.3500 352° North 280 322 11,900 -550 Descending Toronto Center
Thu 10:21:24 AM 43.4167 -79.4000 331° Northwest 260 299 11,700 -800 Descending Toronto Center
Thu 10:22:24 AM 43.4667 -79.4500 324° Northwest 250 288 10,300 -900 Descending Toronto Center
Thu 10:23:24 AM 43.5333 -79.5000 331° Northwest 240 276 9,900 -950 Descending Toronto Center
Thu 10:24:24 AM 43.6000 -79.5167 350° North 240 276 8,400 -1,500 Descending Toronto Center
Thu 10:25:24 AM 43.6500 -79.4333 50° Northeast 280 322 6,900 -1,200 Descending Toronto Center
Thu 10:26:24 AM 43.7000 -79.3500 50° Northeast 270 311 6,000 -1,000 Descending Toronto Center
Thu 10:27:24 AM 43.7500 -79.3167 26° Northeast 240 276 4,900 -950 Descending Toronto Center
Thu 10:28:24 AM 43.8000 -79.3500 334° Northwest 210 242 4,100 -450 Descending Toronto Center
Thu 10:29:24 AM 43.7833 -79.4000 245° Southwest 170 196 4,000 -500 Descending Toronto Center
Thu 10:30:24 AM 43.7500 -79.4500 227° Southwest 160 184 3,100 -850 Descending Toronto Center
Thu 10:31:24 AM 43.7167 -79.5000 227° Southwest 150 173 2,300 -750 Descending Toronto Center
Thu 10:32:24 AM 43.7000 -79.5333 235° Southwest 130 150 1,600 -700 Descending Toronto Center
Thu 10:33:24 AM 43.6667 -79.5667 216° Southwest 120 138 900 -550 Descending Toronto Center
Thu 10:34:24 AM 43.6500 -79.6167 245° Southwest 120 138 500 -400 Descending Toronto Center

Login

Don't have an account? Register now (free) for customized features, flight alerts, and more!